Time;durP1;ratioP1;P1;durP2;ratioP2;P2;SDS_P1;SDS_P2;PMS_P1;PMS_P2;Temp;Humidity;BMP_temperature;BMP_pressure;BME280_temperature;BME280_humidity;BME280_pressure;Samples;Min_cycle;Max_cycle;Signal;HPM_P1;HPM_P2
2022/12/20 00:02:21;;;;;;;22.30;14.17;;;6.10;1.00;;;;;;5081032;28;20306;-69
2022/12/20 00:04:46;;;;;;;21.60;12.97;;;6.20;1.00;;;;;;5078552;28;20179;-70
2022/12/20 00:07:12;;;;;;;19.33;12.77;;;6.50;1.00;;;;;;5083745;28;20187;-68
2022/12/20 00:09:38;;;;;;;20.77;11.87;;;6.20;1.00;;;;;;5079555;28;20704;-72
2022/12/20 00:12:03;;;;;;;20.30;11.97;;;6.20;1.00;;;;;;5086242;28;20179;-70
2022/12/20 00:14:29;;;;;;;17.20;11.83;;;6.20;1.00;;;;;;5089067;28;20187;-69
2022/12/20 00:16:54;;;;;;;20.00;11.60;;;6.20;1.00;;;;;;5087558;28;20535;-71
2022/12/20 00:19:20;;;;;;;19.30;12.13;;;6.30;1.00;;;;;;5071474;28;20654;-69
2022/12/20 00:21:45;;;;;;;19.93;12.10;;;6.40;1.00;;;;;;5087941;28;20469;-70
2022/12/20 00:24:11;;;;;;;19.10;11.53;;;6.40;1.00;;;;;;5086413;28;20210;-69
2022/12/20 00:26:37;;;;;;;18.67;11.60;;;6.50;1.00;;;;;;5087853;28;20397;-71
2022/12/20 00:29:04;;;;;;;17.33;11.70;;;6.50;1.00;;;;;;5083348;28;20179;-70
2022/12/20 00:31:30;;;;;;;20.27;12.70;;;6.60;1.00;;;;;;5099627;28;20432;-70
2022/12/20 00:33:58;;;;;;;17.30;11.67;;;6.70;1.00;;;;;;5089210;28;20992;-69
2022/12/20 00:36:27;;;;;;;22.37;14.50;;;6.80;1.00;;;;;;5090416;28;20748;-70
2022/12/20 00:38:54;;;;;;;36.23;19.37;;;6.90;1.00;;;;;;5082303;28;20552;-69
2022/12/20 00:41:22;;;;;;;23.57;14.07;;;6.90;1.00;;;;;;5090735;28;20413;-70
2022/12/20 00:43:48;;;;;;;27.30;16.00;;;6.90;1.00;;;;;;5085637;28;20815;-69
2022/12/20 00:46:16;;;;;;;18.57;11.37;;;6.80;1.00;;;;;;5077162;28;20939;-70
2022/12/20 00:48:42;;;;;;;22.20;11.27;;;6.70;1.00;;;;;;5075822;28;20464;-68
2022/12/20 00:51:14;;;;;;;23.63;14.30;;;6.70;1.00;;;;;;5083347;28;20896;-69
2022/12/20 00:53:40;;;;;;;19.73;13.60;;;6.70;1.00;;;;;;5087615;28;20290;-69
2022/12/20 00:56:07;;;;;;;19.33;11.70;;;6.70;1.00;;;;;;5088911;28;20464;-69
2022/12/20 00:58:33;;;;;;;24.67;12.33;;;6.70;1.00;;;;;;5084689;28;20494;-68
2022/12/20 01:00:59;;;;;;;20.20;12.90;;;6.60;1.00;;;;;;5094416;28;20477;-69
2022/12/20 01:03:25;;;;;;;20.77;13.10;;;6.50;1.00;;;;;;5094804;28;20461;-70
2022/12/20 01:05:53;;;;;;;23.00;12.80;;;6.40;1.00;;;;;;5089311;28;20184;-71
2022/12/20 01:08:19;;;;;;;18.87;11.80;;;6.30;1.00;;;;;;5087360;28;20567;-69
2022/12/20 01:10:46;;;;;;;20.93;12.70;;;6.30;1.00;;;;;;5088027;28;20486;-71
2022/12/20 01:13:12;;;;;;;22.00;12.93;;;6.30;1.00;;;;;;5082076;28;20492;-70
2022/12/20 01:15:38;;;;;;;22.10;13.40;;;6.30;1.00;;;;;;5088332;28;20430;-70
2022/12/20 01:18:03;;;;;;;21.70;13.20;;;6.20;1.00;;;;;;5099215;28;20457;-69
2022/12/20 01:20:29;;;;;;;21.00;12.87;;;6.20;1.00;;;;;;5081397;28;20184;-70
2022/12/20 01:22:54;;;;;;;21.60;12.27;;;6.20;1.00;;;;;;5087263;28;20284;-69
2022/12/20 01:25:20;;;;;;;23.10;12.00;;;6.20;1.00;;;;;;5081157;28;20253;-68
2022/12/20 01:27:45;;;;;;;22.40;12.90;;;6.20;1.00;;;;;;5095198;28;20706;-70
2022/12/20 01:30:11;;;;;;;19.27;12.30;;;6.10;1.00;;;;;;5094447;28;20177;-69
2022/12/20 01:32:37;;;;;;;22.20;11.83;;;6.10;1.00;;;;;;5081829;28;20203;-70
2022/12/20 01:35:02;;;;;;;20.77;12.57;;;6.00;1.00;;;;;;5090321;28;20171;-71
2022/12/20 01:37:28;;;;;;;20.83;12.80;;;6.00;1.00;;;;;;5070638;28;20176;-71
2022/12/20 01:39:54;;;;;;;20.83;12.03;;;6.30;1.00;;;;;;5090524;28;20482;-69
2022/12/20 01:42:19;;;;;;;18.57;11.70;;;5.90;1.00;;;;;;5089518;28;20230;-69
2022/12/20 01:44:45;;;;;;;19.70;12.40;;;5.90;1.00;;;;;;5082697;28;20187;-70
2022/12/20 01:47:12;;;;;;;16.60;11.33;;;5.90;1.00;;;;;;5078497;28;20215;-69
2022/12/20 01:49:43;;;;;;;23.80;12.20;;;5.90;1.00;;;;;;5081696;28;20176;-69
2022/12/20 01:52:16;;;;;;;19.10;12.50;;;5.90;1.00;;;;;;5089479;28;20928;-69
2022/12/20 01:54:50;;;;;;;23.33;12.03;;;5.90;1.00;;;;;;5083478;28;20430;-71
2022/12/20 01:57:30;;;;;;;19.00;12.00;;;5.90;1.00;;;;;;5088452;28;20436;-72
2022/12/20 01:59:57;;;;;;;17.90;11.50;;;5.90;1.00;;;;;;5081025;28;20437;-70
2022/12/20 02:02:23;;;;;;;18.33;10.80;;;5.80;1.00;;;;;;5086768;28;20566;-70
2022/12/20 02:04:49;;;;;;;18.23;11.70;;;5.70;1.00;;;;;;5083861;28;20441;-70
2022/12/20 02:07:20;;;;;;;19.30;11.77;;;5.60;1.00;;;;;;5089926;28;20410;-71
2022/12/20 02:09:47;;;;;;;18.70;11.80;;;5.60;1.00;;;;;;5085391;28;20627;-69
2022/12/20 02:12:24;;;;;;;23.07;11.47;;;5.60;1.00;;;;;;5088909;28;20429;-71
2022/12/20 02:15:07;;;;;;;21.43;12.63;;;5.60;1.00;;;;;;5078392;28;20442;-69
2022/12/20 02:17:59;;;;;;;22.47;12.70;;;5.60;1.00;;;;;;5087001;28;20489;-70
2022/12/20 02:20:39;;;;;;;19.53;11.93;;;5.60;1.00;;;;;;5081916;28;20430;-70
2022/12/20 02:23:30;;;;;;;18.90;11.87;;;5.60;1.00;;;;;;5082267;28;20426;-69
2022/12/20 02:26:27;;;;;;;20.33;12.10;;;5.60;1.00;;;;;;5080790;28;20426;-70
2022/12/20 02:29:32;;;;;;;19.53;10.87;;;5.60;1.00;;;;;;5087665;28;20853;-69
2022/12/20 02:32:08;;;;;;;17.07;10.97;;;5.70;1.00;;;;;;5088719;28;20414;-69
2022/12/20 02:34:36;;;;;;;19.03;11.70;;;5.70;1.00;;;;;;5078406;28;20444;-70
2022/12/20 02:37:02;;;;;;;18.63;11.17;;;5.70;1.00;;;;;;5081733;28;20494;-71
2022/12/20 02:39:29;;;;;;;22.03;13.53;;;5.70;1.00;;;;;;5079529;28;20559;-69
2022/12/20 02:42:06;;;;;;;19.20;11.70;;;5.70;1.00;;;;;;5081284;28;20208;-70
2022/12/20 02:47:29;;;;;;;19.17;11.73;;;5.60;1.00;;;;;;5077528;28;20808;-69
2022/12/20 02:49:56;;;;;;;16.93;10.27;;;5.70;1.00;;;;;;5074791;28;20495;-69
2022/12/20 02:52:25;;;;;;;17.40;11.10;;;5.70;1.00;;;;;;5082281;28;20885;-69
2022/12/20 02:54:52;;;;;;;20.00;11.40;;;5.70;1.10;;;;;;5081753;28;20414;-69
2022/12/20 02:57:24;;;;;;;16.33;10.70;;;5.80;1.00;;;;;;5082283;28;20484;-69
2022/12/20 03:00:01;;;;;;;19.30;11.57;;;5.80;1.00;;;;;;5088742;28;20456;-69
2022/12/20 03:02:28;;;;;;;16.80;10.50;;;5.80;1.00;;;;;;5084837;28;20456;-69
2022/12/20 03:04:54;;;;;;;16.53;10.80;;;5.80;1.00;;;;;;5088940;28;20434;-71
2022/12/20 03:07:20;;;;;;;17.00;11.40;;;5.80;1.00;;;;;;5084597;28;20590;-71
2022/12/20 03:09:46;;;;;;;17.30;11.30;;;5.80;1.00;;;;;;5089644;28;20863;-71
2022/12/20 03:12:13;;;;;;;15.73;11.10;;;5.80;1.00;;;;;;5072723;28;20544;-70
2022/12/20 03:14:39;;;;;;;16.10;11.00;;;5.70;1.00;;;;;;5089962;28;20592;-70
2022/12/20 03:17:05;;;;;;;15.27;10.97;;;5.70;1.00;;;;;;5082560;28;20442;-70
2022/12/20 03:19:31;;;;;;;19.50;11.67;;;5.70;1.00;;;;;;5081816;28;20470;-69
2022/12/20 03:21:57;;;;;;;16.00;10.30;;;5.70;1.00;;;;;;5087628;28;20896;-70
2022/12/20 03:24:22;;;;;;;20.87;10.30;;;5.70;1.00;;;;;;5084264;28;20223;-69
2022/12/20 03:26:48;;;;;;;18.20;10.57;;;5.70;1.00;;;;;;5086639;28;20172;-69
2022/12/20 03:29:13;;;;;;;17.10;9.80;;;5.70;1.00;;;;;;5082361;28;20180;-69
2022/12/20 03:31:39;;;;;;;17.27;10.73;;;5.70;1.00;;;;;;5085316;28;20191;-70
2022/12/20 03:34:05;;;;;;;16.67;10.10;;;5.70;1.00;;;;;;5088186;28;20638;-70
2022/12/20 03:36:30;;;;;;;16.43;10.80;;;5.80;1.00;;;;;;5088595;28;20184;-69
2022/12/20 03:38:56;;;;;;;16.30;10.40;;;5.90;1.00;;;;;;5085532;28;20207;-69
2022/12/20 03:41:22;;;;;;;16.97;10.40;;;5.90;1.00;;;;;;5081548;28;20202;-69
2022/12/20 03:43:49;;;;;;;16.50;10.50;;;6.00;1.00;;;;;;5087823;28;20562;-69
2022/12/20 03:46:15;;;;;;;19.43;10.80;;;5.90;1.00;;;;;;5082020;28;20444;-69
2022/12/20 03:48:41;;;;;;;15.50;10.10;;;5.90;1.00;;;;;;5081926;28;20422;-71
2022/12/20 03:51:07;;;;;;;15.30;10.30;;;5.90;1.00;;;;;;5085043;28;20433;-69
2022/12/20 03:53:33;;;;;;;18.80;11.10;;;6.00;1.00;;;;;;5088917;28;20783;-69
2022/12/20 03:55:58;;;;;;;15.03;9.97;;;6.10;1.00;;;;;;5080188;28;20263;-70
2022/12/20 03:58:24;;;;;;;14.80;9.67;;;6.10;1.00;;;;;;5086518;28;20207;-70
2022/12/20 04:00:49;;;;;;;15.40;9.90;;;6.20;1.00;;;;;;5081533;28;20649;-70
2022/12/20 04:03:15;;;;;;;14.93;10.27;;;6.20;1.00;;;;;;5076872;28;20349;-69
2022/12/20 04:05:40;;;;;;;13.00;8.80;;;6.10;1.00;;;;;;5082893;28;20622;-69
2022/12/20 04:08:06;;;;;;;15.13;9.70;;;6.20;1.00;;;;;;5086828;28;20180;-69
2022/12/20 04:10:32;;;;;;;15.37;10.53;;;6.10;1.00;;;;;;5081322;28;20206;-70
2022/12/20 04:13:17;;;;;;;16.10;10.60;;;6.00;1.00;;;;;;5080291;28;20203;-68
2022/12/20 04:15:43;;;;;;;14.73;9.90;;;6.00;1.00;;;;;;5079205;28;20545;-69
2022/12/20 04:18:08;;;;;;;15.73;9.83;;;6.20;1.00;;;;;;5076629;28;20230;-69
2022/12/20 04:20:34;;;;;;;14.57;9.70;;;6.20;1.00;;;;;;5083136;28;20180;-69
2022/12/20 04:22:59;;;;;;;13.93;9.30;;;6.20;1.00;;;;;;5086849;28;20272;-69
2022/12/20 04:25:25;;;;;;;14.80;9.23;;;6.30;1.00;;;;;;5089159;28;20164;-69
2022/12/20 04:27:50;;;;;;;15.30;9.50;;;6.90;1.00;;;;;;5083767;28;20210;-69
2022/12/20 04:30:16;;;;;;;17.73;11.00;;;6.20;1.00;;;;;;5082218;28;20658;-69
2022/12/20 04:32:41;;;;;;;13.80;9.57;;;6.20;1.00;;;;;;5085403;28;20207;-69
2022/12/20 04:35:07;;;;;;;14.47;9.90;;;6.20;1.00;;;;;;5080694;28;20605;-69
2022/12/20 04:37:33;;;;;;;13.20;8.97;;;6.10;1.00;;;;;;5087221;28;20215;-69
2022/12/20 04:39:58;;;;;;;16.77;10.30;;;6.20;1.00;;;;;;5081243;28;20179;-69
2022/12/20 04:42:25;;;;;;;14.70;9.50;;;6.20;1.00;;;;;;5087031;28;20192;-70
2022/12/20 04:44:51;;;;;;;13.73;9.20;;;6.20;1.00;;;;;;5087594;28;20190;-70
2022/12/20 04:47:16;;;;;;;15.93;9.70;;;6.20;1.00;;;;;;5077750;28;20517;-69
2022/12/20 04:49:42;;;;;;;14.07;10.00;;;6.20;1.00;;;;;;5068669;28;20619;-69
2022/12/20 04:54:51;;;;;;;15.70;9.37;;;6.30;1.00;;;;;;5080767;28;20654;-69
2022/12/20 04:57:17;;;;;;;17.20;9.70;;;6.30;1.00;;;;;;5087399;28;20437;-69
2022/12/20 04:59:42;;;;;;;18.20;9.43;;;6.30;1.00;;;;;;5081779;28;20214;-69
2022/12/20 05:02:08;;;;;;;13.73;8.77;;;6.40;1.00;;;;;;5081872;28;20180;-70
2022/12/20 05:04:33;;;;;;;13.20;8.53;;;6.50;1.00;;;;;;5083612;28;20389;-69
2022/12/20 05:06:59;;;;;;;13.53;8.87;;;6.50;1.00;;;;;;5091092;28;20194;-70
2022/12/20 05:09:24;;;;;;;17.73;9.80;;;6.50;1.00;;;;;;5088186;28;20184;-70
2022/12/20 05:11:50;;;;;;;16.67;9.33;;;6.40;1.00;;;;;;5090356;28;20184;-69
2022/12/20 05:14:15;;;;;;;14.13;9.70;;;7.00;1.00;;;;;;5083104;28;20229;-70
2022/12/20 05:16:41;;;;;;;12.57;8.60;;;6.30;1.00;;;;;;5084726;28;20648;-70
2022/12/20 05:19:06;;;;;;;14.27;9.10;;;6.40;1.00;;;;;;5083770;28;20215;-70
2022/12/20 05:27:00;;;;;;;16.13;9.80;;;6.60;1.00;;;;;;5082869;28;20814;-69
2022/12/20 05:29:26;;;;;;;14.40;9.27;;;6.40;1.00;;;;;;5085281;28;20437;-69
2022/12/20 05:31:52;;;;;;;16.37;10.07;;;6.50;1.00;;;;;;5101129;28;20187;-70
2022/12/20 05:34:17;;;;;;;15.13;8.80;;;6.60;1.00;;;;;;5084298;28;20674;-70
2022/12/20 05:36:43;;;;;;;14.97;9.10;;;6.70;1.00;;;;;;5088286;28;20422;-70
2022/12/20 05:39:10;;;;;;;15.43;9.57;;;6.80;1.00;;;;;;5086822;28;20215;-69
2022/12/20 05:41:36;;;;;;;22.30;9.77;;;6.90;1.00;;;;;;5089364;28;20205;-69
2022/12/20 05:44:02;;;;;;;12.83;9.23;;;6.90;1.00;;;;;;5085483;28;20950;-71
2022/12/20 05:46:27;;;;;;;16.00;9.40;;;7.00;1.00;;;;;;5090345;28;20250;-69
2022/12/20 05:48:53;;;;;;;14.83;9.90;;;7.00;1.00;;;;;;5077747;28;20185;-70
2022/12/20 05:51:18;;;;;;;12.90;9.50;;;7.10;1.00;;;;;;5083490;28;20210;-69
2022/12/20 05:53:44;;;;;;;14.10;9.57;;;7.20;1.00;;;;;;5080191;28;20425;-69
2022/12/20 05:56:10;;;;;;;17.17;9.80;;;7.20;1.00;;;;;;5090120;28;20278;-70
2022/12/20 05:58:35;;;;;;;15.70;9.97;;;7.20;1.00;;;;;;5082683;28;20461;-70
2022/12/20 06:01:03;;;;;;;14.37;9.57;;;7.20;1.00;;;;;;5093305;28;20167;-66
2022/12/20 06:03:29;;;;;;;19.20;10.03;;;7.20;1.00;;;;;;5097465;28;20192;-69
2022/12/20 06:05:55;;;;;;;16.20;9.60;;;7.20;1.00;;;;;;5084892;28;20418;-69
2022/12/20 06:08:22;;;;;;;16.53;10.07;;;7.20;1.00;;;;;;5078928;28;20437;-70
2022/12/20 06:10:48;;;;;;;17.80;10.37;;;7.20;1.00;;;;;;5089698;28;20287;-71
2022/12/20 06:13:13;;;;;;;17.03;10.40;;;7.20;1.00;;;;;;5084689;28;20751;-67
2022/12/20 06:15:39;;;;;;;17.60;10.90;;;7.20;1.00;;;;;;5087362;28;20180;-70
2022/12/20 06:18:05;;;;;;;15.77;10.10;;;7.20;1.00;;;;;;5086817;28;20192;-73
2022/12/20 06:20:31;;;;;;;17.07;10.70;;;7.10;1.00;;;;;;5080391;28;20330;-69
2022/12/20 06:22:57;;;;;;;16.60;10.60;;;7.10;1.00;;;;;;5084865;28;20446;-70
2022/12/20 06:25:23;;;;;;;15.20;10.50;;;7.10;1.00;;;;;;5088877;28;20487;-70
2022/12/20 06:27:48;;;;;;;18.33;10.60;;;7.10;1.00;;;;;;5087877;28;20198;-69
2022/12/20 06:30:15;;;;;;;18.67;10.80;;;7.00;1.00;;;;;;5090448;28;20727;-70
2022/12/20 06:32:40;;;;;;;16.30;11.30;;;7.00;1.00;;;;;;5088600;28;20195;-70
2022/12/20 06:35:06;;;;;;;19.30;10.70;;;7.00;1.00;;;;;;5083077;28;20490;-70
2022/12/20 06:37:32;;;;;;;18.80;11.60;;;7.00;1.00;;;;;;5082930;28;20183;-69
2022/12/20 06:39:58;;;;;;;16.57;10.93;;;7.00;1.00;;;;;;5085762;28;20168;-69
2022/12/20 06:42:24;;;;;;;17.57;11.20;;;7.00;1.00;;;;;;5082879;28;20192;-69
2022/12/20 06:44:49;;;;;;;17.50;10.93;;;7.00;1.00;;;;;;5081482;28;20427;-72
2022/12/20 06:47:15;;;;;;;16.93;10.83;;;7.00;1.00;;;;;;5083296;28;20206;-69
2022/12/20 06:49:40;;;;;;;18.00;11.90;;;6.90;1.00;;;;;;5080396;28;20426;-69
2022/12/20 06:52:06;;;;;;;32.47;20.93;;;7.00;1.00;;;;;;5081603;28;20185;-71
2022/12/20 06:54:31;;;;;;;20.20;13.00;;;7.10;1.00;;;;;;5081510;28;20180;-70
2022/12/20 06:56:57;;;;;;;19.90;12.43;;;7.00;1.00;;;;;;5080275;28;20180;-70
2022/12/20 06:59:23;;;;;;;17.90;11.90;;;7.00;1.00;;;;;;5085705;28;20547;-70
2022/12/20 07:01:48;;;;;;;16.37;12.57;;;7.10;1.00;;;;;;5099544;28;20370;-69
2022/12/20 07:04:14;;;;;;;17.13;11.10;;;7.10;1.00;;;;;;5087972;28;20265;-69
2022/12/20 07:06:39;;;;;;;17.00;11.27;;;7.00;1.00;;;;;;5090302;28;20279;-69
2022/12/20 07:09:05;;;;;;;16.23;10.43;;;7.00;1.00;;;;;;5074489;28;20188;-69
2022/12/20 07:11:30;;;;;;;17.27;10.77;;;7.10;1.00;;;;;;5069432;28;20181;-70
2022/12/20 07:13:57;;;;;;;16.90;10.50;;;7.10;1.00;;;;;;5090474;28;20203;-70
2022/12/20 07:16:23;;;;;;;16.20;10.60;;;7.00;1.00;;;;;;5094801;28;20191;-69
2022/12/20 07:18:50;;;;;;;15.37;10.47;;;7.10;1.00;;;;;;5105723;28;20496;-69
2022/12/20 07:21:17;;;;;;;18.43;10.43;;;7.20;1.00;;;;;;5072283;28;20460;-70
2022/12/20 07:23:43;;;;;;;18.87;9.43;;;7.20;1.00;;;;;;5070162;28;20507;-69
2022/12/20 07:26:10;;;;;;;18.93;10.20;;;7.20;1.00;;;;;;5068725;28;20515;-70
2022/12/20 16:06:19;;;;;;;8.70;5.50;;;7.30;1.00;;;;;;5060197;28;20564;-70
2022/12/20 16:08:45;;;;;;;13.10;7.40;;;7.40;1.00;;;;;;5064178;28;20477;-72
2022/12/20 16:11:23;;;;;;;12.40;6.60;;;7.40;1.00;;;;;;5059136;28;20215;-69
2022/12/20 16:13:49;;;;;;;11.70;7.30;;;7.60;1.00;;;;;;5061099;28;20544;-71
2022/12/20 16:16:17;;;;;;;7.83;5.80;;;7.70;1.00;;;;;;5047250;28;20431;-71
2022/12/20 16:18:44;;;;;;;8.77;5.80;;;7.90;1.00;;;;;;5053971;28;20432;-70
2022/12/20 16:21:31;;;;;;;7.73;5.70;;;8.20;1.00;;;;;;5055604;28;20570;-71
2022/12/20 16:23:57;;;;;;;8.27;5.40;;;8.40;1.00;;;;;;5057053;28;20431;-68
2022/12/20 16:26:24;;;;;;;9.30;5.70;;;8.60;1.00;;;;;;5059858;28;21004;-70
2022/12/20 16:28:51;;;;;;;23.70;15.67;;;8.70;1.00;;;;;;5064099;28;20172;-70
2022/12/20 16:31:37;;;;;;;8.00;5.83;;;8.80;1.00;;;;;;5064398;28;20517;-70
2022/12/20 16:34:24;;;;;;;9.10;5.50;;;9.00;1.00;;;;;;5046980;28;20399;-71
2022/12/20 16:36:49;;;;;;;13.27;8.03;;;9.10;1.00;;;;;;5061871;28;20961;-71
2022/12/20 16:39:15;;;;;;;41.00;22.27;;;9.20;1.00;;;;;;5065503;28;20477;-69
2022/12/20 16:41:42;;;;;;;9.37;6.80;;;9.20;1.00;;;;;;5046027;28;20216;-71
2022/12/20 16:44:15;;;;;;;13.77;10.20;;;9.20;1.00;;;;;;5061843;28;20191;-70
2022/12/20 16:46:41;;;;;;;7.63;5.83;;;9.20;1.00;;;;;;5060630;28;20504;-71
2022/12/20 16:49:09;;;;;;;10.50;6.40;;;9.30;1.00;;;;;;5055644;28;20545;-69
2022/12/20 16:51:42;;;;;;;6.97;5.80;;;9.40;1.00;;;;;;5054275;28;20431;-71
2022/12/20 16:54:16;;;;;;;14.33;6.00;;;9.50;1.00;;;;;;5062586;28;20447;-70
2022/12/20 16:56:43;;;;;;;9.10;5.70;;;9.50;1.00;;;;;;5058059;28;20489;-71
2022/12/20 16:59:09;;;;;;;11.20;6.50;;;9.60;1.00;;;;;;5059354;28;20448;-71
2022/12/20 17:01:37;;;;;;;8.03;6.43;;;9.50;1.00;;;;;;5056532;28;20443;-71
2022/12/20 17:04:04;;;;;;;8.80;5.70;;;9.50;1.00;;;;;;5059768;28;20513;-69
2022/12/20 17:06:31;;;;;;;12.90;6.47;;;9.50;1.00;;;;;;5065020;28;20579;-71
2022/12/20 17:08:56;;;;;;;10.43;6.10;;;9.40;1.00;;;;;;5059962;28;20426;-70
2022/12/20 17:11:25;;;;;;;12.27;6.70;;;9.40;1.00;;;;;;5052096;28;20945;-71
2022/12/20 17:13:53;;;;;;;9.10;5.80;;;9.30;1.00;;;;;;5047619;28;20184;-72
2022/12/20 17:16:19;;;;;;;8.80;5.80;;;9.30;1.00;;;;;;5051020;28;20440;-71
2022/12/20 17:18:47;;;;;;;9.50;5.73;;;9.30;1.00;;;;;;5043220;28;20273;-72
2022/12/20 17:21:30;;;;;;;10.50;5.50;;;9.30;1.00;;;;;;5059709;28;20433;-70
2022/12/20 17:23:55;;;;;;;9.07;5.83;;;9.40;1.00;;;;;;5072165;28;20821;-71
2022/12/20 17:26:24;;;;;;;8.73;6.13;;;9.40;1.00;;;;;;5048083;28;20462;-71
2022/12/20 17:28:51;;;;;;;8.77;6.20;;;9.30;1.00;;;;;;5039380;28;20734;-70
2022/12/20 17:31:20;;;;;;;8.63;5.70;;;9.30;1.00;;;;;;5060692;28;20737;-72
2022/12/20 17:33:45;;;;;;;10.37;5.70;;;9.30;1.00;;;;;;5033117;28;20511;-71
2022/12/20 17:36:11;;;;;;;8.50;6.00;;;9.20;1.00;;;;;;5030589;28;20529;-72
2022/12/20 17:38:36;;;;;;;11.20;6.20;;;9.20;1.00;;;;;;5054005;28;20188;-71
2022/12/20 17:41:02;;;;;;;9.30;5.90;;;9.20;1.00;;;;;;5049238;28;20888;-70
2022/12/20 17:43:28;;;;;;;13.13;6.37;;;9.20;1.00;;;;;;5043846;28;20182;-72
2022/12/20 17:45:53;;;;;;;9.77;6.20;;;9.20;1.00;;;;;;5032881;28;20197;-69
2022/12/20 17:48:19;;;;;;;10.27;6.30;;;9.20;1.00;;;;;;5046507;28;20246;-72
2022/12/20 17:50:44;;;;;;;9.10;5.93;;;9.20;1.00;;;;;;5042438;28;20595;-70
2022/12/20 17:53:10;;;;;;;11.53;6.50;;;9.10;1.00;;;;;;5050505;28;20177;-72
2022/12/20 17:55:36;;;;;;;9.67;6.40;;;9.10;1.00;;;;;;5041311;28;20193;-72
2022/12/20 17:58:01;;;;;;;12.87;7.00;;;9.00;1.00;;;;;;5047357;28;20436;-73
2022/12/20 18:00:29;;;;;;;11.13;6.47;;;9.00;1.00;;;;;;5040506;28;20706;-70
2022/12/20 18:02:55;;;;;;;11.47;7.30;;;9.10;1.00;;;;;;5046634;28;20193;-72
2022/12/20 18:05:22;;;;;;;12.83;8.10;;;9.10;1.00;;;;;;5045714;28;20502;-72
2022/12/20 18:07:50;;;;;;;9.53;7.30;;;9.20;1.00;;;;;;5040298;28;20182;-74
2022/12/20 18:10:15;;;;;;;11.30;6.57;;;9.10;1.00;;;;;;5049152;28;20423;-72
2022/12/20 18:12:41;;;;;;;10.47;7.20;;;9.20;1.00;;;;;;5039804;28;20491;-72
2022/12/20 18:15:07;;;;;;;11.57;6.67;;;9.10;1.00;;;;;;5048975;28;20268;-71
2022/12/20 18:17:33;;;;;;;10.53;6.40;;;9.20;1.00;;;;;;5047247;28;20181;-70
2022/12/20 18:19:58;;;;;;;13.63;6.97;;;9.20;1.00;;;;;;5047456;28;20455;-73
2022/12/20 18:22:24;;;;;;;12.43;7.10;;;9.10;1.00;;;;;;5050222;28;20268;-72
2022/12/20 18:24:49;;;;;;;9.77;6.73;;;9.00;1.00;;;;;;5048380;28;20211;-72
2022/12/20 18:27:16;;;;;;;13.63;6.90;;;8.90;1.00;;;;;;5050006;28;20219;-70
2022/12/20 18:29:42;;;;;;;8.93;6.20;;;9.00;1.00;;;;;;5055206;28;20243;-70
2022/12/20 18:32:07;;;;;;;10.40;6.43;;;9.00;1.00;;;;;;5038325;28;20476;-71
2022/12/20 18:34:33;;;;;;;9.57;6.00;;;9.00;1.00;;;;;;5047464;28;20204;-71
2022/12/20 18:37:00;;;;;;;10.90;6.20;;;9.00;1.00;;;;;;5047062;28;20259;-68
2022/12/20 18:39:26;;;;;;;9.70;6.13;;;9.00;1.00;;;;;;5044652;28;20197;-70
2022/12/20 18:41:51;;;;;;;11.60;7.60;;;9.00;1.00;;;;;;5046834;28;20929;-69
2022/12/20 18:44:17;;;;;;;8.63;6.30;;;9.00;1.00;;;;;;5041121;28;20703;-70
2022/12/20 18:46:42;;;;;;;10.10;7.00;;;9.00;1.00;;;;;;5048964;28;20173;-71
2022/12/20 18:49:08;;;;;;;10.33;6.23;;;9.00;1.00;;;;;;5043271;28;20691;-71
2022/12/20 18:51:35;;;;;;;9.10;6.40;;;9.00;1.00;;;;;;5038173;28;20181;-71
2022/12/20 18:54:01;;;;;;;12.07;6.90;;;8.90;1.00;;;;;;5044001;28;20270;-72
2022/12/20 18:56:32;;;;;;;10.40;7.10;;;8.90;1.00;;;;;;5049935;28;20882;-70
2022/12/20 18:58:59;;;;;;;11.30;6.93;;;8.90;1.00;;;;;;5040352;28;20431;-70
2022/12/20 19:01:28;;;;;;;11.30;7.10;;;8.90;1.00;;;;;;5037342;28;20549;-71
2022/12/20 19:03:54;;;;;;;12.13;7.53;;;8.90;1.00;;;;;;5036177;28;20435;-70
2022/12/20 19:06:20;;;;;;;13.07;7.93;;;8.80;1.00;;;;;;5038628;28;21016;-71
2022/12/20 19:08:46;;;;;;;11.97;6.80;;;8.80;1.00;;;;;;5047099;28;20424;-70
2022/12/20 19:11:22;;;;;;;10.10;6.20;;;8.70;1.00;;;;;;5039582;28;21415;-71
2022/12/20 19:13:49;;;;;;;11.40;6.53;;;8.70;1.00;;;;;;5026823;28;20436;-72
2022/12/20 19:16:17;;;;;;;11.00;8.60;;;8.80;1.00;;;;;;5035759;28;21302;-70
2022/12/20 19:18:43;;;;;;;10.00;7.37;;;8.90;1.00;;;;;;5058617;28;20415;-71
2022/12/20 19:21:30;;;;;;;10.50;6.90;;;8.90;1.00;;;;;;5033672;28;20455;-71
2022/12/20 19:23:58;;;;;;;14.87;10.17;;;9.00;1.00;;;;;;5044103;28;20411;-69
2022/12/20 19:26:26;;;;;;;19.40;9.80;;;9.20;1.00;;;;;;5042771;28;20530;-69
2022/12/20 19:28:51;;;;;;;51.17;33.90;;;9.20;1.00;;;;;;5040571;28;20437;-70
2022/12/20 19:31:23;;;;;;;13.97;10.13;;;9.20;1.00;;;;;;5049406;28;20418;-71
2022/12/20 19:33:50;;;;;;;14.10;8.40;;;9.30;1.00;;;;;;5050347;28;20173;-70
2022/12/20 19:36:17;;;;;;;15.80;8.40;;;9.30;1.00;;;;;;5034459;28;20465;-71
2022/12/20 19:38:44;;;;;;;13.13;7.60;;;9.40;1.00;;;;;;5044559;28;20525;-71
2022/12/20 19:41:10;;;;;;;10.53;8.00;;;9.40;1.00;;;;;;5037620;28;20558;-71
2022/12/20 19:43:36;;;;;;;10.40;7.30;;;9.50;1.00;;;;;;5043640;28;21662;-71
2022/12/20 19:46:02;;;;;;;25.33;14.53;;;9.50;1.00;;;;;;5041827;28;20483;-71
2022/12/20 19:48:28;;;;;;;12.93;8.03;;;9.50;1.00;;;;;;5047308;28;20346;-71
2022/12/20 19:51:05;;;;;;;24.40;13.90;;;9.50;1.00;;;;;;5043988;28;20531;-68
2022/12/20 19:53:31;;;;;;;18.90;12.20;;;9.40;1.00;;;;;;5040036;28;20177;-71
2022/12/20 19:55:58;;;;;;;11.60;9.10;;;9.40;1.00;;;;;;5042182;28;20484;-71
2022/12/20 19:58:24;;;;;;;15.07;9.17;;;9.40;1.00;;;;;;5026658;28;20184;-71
2022/12/20 20:00:50;;;;;;;12.10;7.93;;;9.40;1.00;;;;;;5043337;28;20456;-68
2022/12/20 20:03:16;;;;;;;15.90;9.17;;;9.30;1.00;;;;;;5045630;28;20420;-71
2022/12/20 20:05:42;;;;;;;13.50;8.90;;;9.40;1.00;;;;;;5043424;28;20463;-71
2022/12/20 20:08:08;;;;;;;57.43;29.33;;;9.40;1.00;;;;;;5046051;28;20422;-70
2022/12/20 20:10:34;;;;;;;17.50;10.67;;;9.20;1.00;;;;;;5042245;28;20196;-71
2022/12/20 20:12:59;;;;;;;13.40;8.47;;;9.20;1.00;;;;;;5047129;28;20423;-71
2022/12/20 20:15:25;;;;;;;20.90;11.33;;;9.20;1.00;;;;;;5044625;28;20198;-71
2022/12/20 20:17:50;;;;;;;21.00;12.30;;;9.10;1.00;;;;;;5043038;28;20181;-70
2022/12/20 20:20:16;;;;;;;21.50;12.30;;;9.00;1.00;;;;;;5041755;28;20204;-70
2022/12/20 20:22:42;;;;;;;14.33;10.30;;;9.10;1.00;;;;;;5046830;28;20336;-71
2022/12/20 20:25:08;;;;;;;17.67;12.10;;;9.00;1.00;;;;;;5042607;28;20293;-70
2022/12/20 20:27:33;;;;;;;24.47;14.07;;;9.00;1.00;;;;;;5045457;28;20252;-71
2022/12/20 20:29:59;;;;;;;15.60;10.67;;;9.00;1.00;;;;;;5051249;28;20572;-70
2022/12/20 20:32:24;;;;;;;14.00;9.80;;;8.90;1.00;;;;;;5048126;28;20166;-71
2022/12/20 20:34:50;;;;;;;19.37;12.03;;;8.90;1.00;;;;;;5037369;28;20475;-68
2022/12/20 20:37:15;;;;;;;21.43;12.03;;;9.00;1.00;;;;;;5042310;28;20543;-71
2022/12/20 20:39:41;;;;;;;29.93;18.23;;;9.00;1.00;;;;;;5037797;28;20201;-71
2022/12/20 20:42:06;;;;;;;27.70;14.90;;;8.90;1.00;;;;;;5045390;28;20237;-71
2022/12/20 20:44:32;;;;;;;28.80;17.20;;;8.90;1.00;;;;;;5039180;28;20206;-71
2022/12/20 20:46:57;;;;;;;16.50;12.20;;;8.80;1.00;;;;;;5039007;28;20220;-71
2022/12/20 20:49:23;;;;;;;18.23;11.50;;;8.80;1.00;;;;;;5031337;28;20254;-70
2022/12/20 20:51:48;;;;;;;16.40;10.43;;;8.80;1.00;;;;;;5046690;28;20243;-71
2022/12/20 20:54:14;;;;;;;16.13;10.70;;;8.70;1.00;;;;;;5045018;28;20178;-70
2022/12/20 20:56:40;;;;;;;15.03;9.90;;;8.70;1.00;;;;;;5050282;28;20453;-71
2022/12/20 20:59:05;;;;;;;15.60;9.77;;;8.70;1.00;;;;;;5049335;28;20199;-71
2022/12/20 21:01:31;;;;;;;14.40;10.23;;;8.70;1.00;;;;;;5040547;28;20181;-71
2022/12/20 21:03:56;;;;;;;22.97;14.20;;;8.70;1.00;;;;;;5042246;28;20703;-71
2022/12/20 21:06:23;;;;;;;15.97;10.60;;;8.70;1.00;;;;;;5037151;28;20201;-72
2022/12/20 21:08:50;;;;;;;16.27;10.80;;;8.60;1.00;;;;;;5046865;28;20385;-71
2022/12/20 21:11:15;;;;;;;15.13;10.90;;;8.60;1.00;;;;;;5035686;28;20962;-71
2022/12/20 21:13:41;;;;;;;18.43;10.20;;;8.60;1.00;;;;;;5045795;28;20449;-72
2022/12/20 21:16:09;;;;;;;11.47;7.80;;;8.60;1.00;;;;;;5039062;28;20181;-72
2022/12/20 21:18:34;;;;;;;14.40;9.00;;;8.70;1.00;;;;;;5041825;28;20671;-71
2022/12/20 21:21:12;;;;;;;12.13;7.73;;;8.80;1.00;;;;;;5033290;28;20455;-70
2022/12/20 21:23:38;;;;;;;11.30;7.73;;;9.00;1.00;;;;;;5035038;28;20232;-71
2022/12/20 21:26:04;;;;;;;11.50;7.67;;;9.10;1.00;;;;;;5033852;28;21251;-71
2022/12/20 21:28:30;;;;;;;12.33;7.80;;;9.10;1.00;;;;;;5044436;28;20582;-71
2022/12/20 21:31:04;;;;;;;11.53;7.70;;;9.10;1.00;;;;;;5040999;28;20254;-72
2022/12/20 21:33:30;;;;;;;12.43;8.70;;;9.20;1.00;;;;;;5039292;28;20447;-72
2022/12/20 21:36:00;;;;;;;10.80;8.73;;;9.30;1.00;;;;;;5047934;28;21011;-70
2022/12/20 21:38:25;;;;;;;11.00;8.33;;;9.40;1.00;;;;;;5044318;28;20181;-71
2022/12/20 21:40:51;;;;;;;12.37;7.80;;;9.40;1.00;;;;;;5039904;28;20448;-70
2022/12/20 21:43:16;;;;;;;14.40;8.63;;;9.40;1.00;;;;;;5034692;28;20265;-72